Time;durP1;ratioP1;P1;durP2;ratioP2;P2;SDS_P1;SDS_P2;PMS_P1;PMS_P2;Temp;Humidity;BMP_temperature;BMP_pressure;BME280_temperature;BME280_humidity;BME280_pressure;Samples;Min_cycle;Max_cycle;Signal;HPM_P1;HPM_P2
2021/10/29 00:01:09;;;;;;;;;;;;;;;13.72;56.96;100783.94;4850825;28;100193;-62
2021/10/29 00:03:34;;;;;;;;;;;;;;;13.72;57.00;100775.00;4884140;28;98470;-61
2021/10/29 00:06:00;;;;;;;;;;;;;;;13.71;57.35;100766.03;4851672;28;98131;-68
2021/10/29 00:08:26;;;;;;;;;;;;;;;13.70;57.25;100772.56;4865149;28;127119;-61
2021/10/29 00:10:52;;;;;;;;;;;;;;;13.68;57.24;100769.34;4881818;28;129028;-69
2021/10/29 00:13:18;;;;;;;;;;;;;;;13.67;57.28;100767.69;4883564;28;126562;-69
2021/10/29 00:15:44;;;;;;;;;;;;;;;13.65;57.25;100771.78;4884310;28;117581;-61
2021/10/29 00:18:10;;;;;;;;;;;;;;;13.64;57.25;100773.69;4884452;28;114695;-68
2021/10/29 00:20:36;;;;;;;;;;;;;;;13.63;57.13;100773.94;4870569;28;99549;-68
2021/10/29 00:23:02;;;;;;;;;;;;;;;13.62;57.21;100777.75;4871334;28;126397;-62
2021/10/29 00:25:28;;;;;;;;;;;;;;;13.60;57.43;100774.53;4884788;28;98087;-68
2021/10/29 00:27:54;;;;;;;;;;;;;;;13.59;57.06;100781.03;4852378;28;98458;-62
2021/10/29 00:30:20;;;;;;;;;;;;;;;13.57;57.30;100775.91;4863850;28;107484;-68
2021/10/29 00:32:46;;;;;;;;;;;;;;;13.55;57.30;100766.41;4864969;28;98269;-61
2021/10/29 00:35:11;;;;;;;;;;;;;;;13.53;57.33;100768.63;4871735;28;116835;-69
2021/10/29 00:37:38;;;;;;;;;;;;;;;13.53;57.15;100768.63;4852292;28;98499;-61
2021/10/29 00:40:05;;;;;;;;;;;;;;;13.52;57.29;100770.50;4865220;28;98537;-68
2021/10/29 00:42:31;;;;;;;;;;;;;;;13.49;57.13;100760.22;4864502;28;121947;-68
2021/10/29 00:44:57;;;;;;;;;;;;;;;13.47;57.35;100757.78;4864629;28;104261;-61
2021/10/29 00:47:23;;;;;;;;;;;;;;;13.45;56.97;100759.19;4864544;28;126813;-69
2021/10/29 00:49:49;;;;;;;;;;;;;;;13.44;57.32;100752.94;4865456;28;99063;-61
2021/10/29 00:52:15;;;;;;;;;;;;;;;13.42;57.16;100757.03;4876496;28;128102;-69
2021/10/29 00:54:41;;;;;;;;;;;;;;;13.41;57.10;100756.22;4881639;28;117235;-61
2021/10/29 00:57:07;;;;;;;;;;;;;;;13.41;57.09;100750.00;4882803;28;128846;-68
2021/10/29 00:59:33;;;;;;;;;;;;;;;13.40;57.29;100748.34;4880058;28;128370;-68
2021/10/29 01:01:59;;;;;;;;;;;;;;;13.37;57.06;100741.63;4879839;28;126604;-61
2021/10/29 01:04:25;;;;;;;;;;;;;;;13.38;57.31;100742.41;4878537;28;118082;-61
2021/10/29 01:06:52;;;;;;;;;;;;;;;13.39;57.16;100747.53;4864097;28;113066;-68
2021/10/29 01:09:18;;;;;;;;;;;;;;;13.37;57.32;100741.63;4863440;28;98412;-69
2021/10/29 01:11:44;;;;;;;;;;;;;;;13.39;57.11;100741.31;4862882;28;97994;-68
2021/10/29 01:14:10;;;;;;;;;;;;;;;13.38;57.31;100735.09;4874242;28;98503;-61
2021/10/29 01:16:36;;;;;;;;;;;;;;;13.39;57.21;100742.13;4882824;28;115154;-68
2021/10/29 01:19:02;;;;;;;;;;;;;;;13.39;57.17;100738.63;4877631;28;122840;-61
2021/10/29 01:21:28;;;;;;;;;;;;;;;13.40;57.45;100740.22;4864868;28;114748;-62
2021/10/29 01:23:54;;;;;;;;;;;;;;;13.38;57.10;100737.81;4865250;28;97923;-68
2021/10/29 01:26:20;;;;;;;;;;;;;;;13.38;57.03;100739.72;4863644;28;127781;-69
2021/10/29 01:28:46;;;;;;;;;;;;;;;13.38;57.04;100737.81;4864116;28;99653;-68
2021/10/29 01:31:13;;;;;;;;;;;;;;;13.38;57.25;100735.09;4846277;28;98062;-68
2021/10/29 01:33:39;;;;;;;;;;;;;;;13.39;56.98;100730.50;4864620;28;98083;-61
2021/10/29 01:36:05;;;;;;;;;;;;;;;13.40;57.12;100732.09;4863649;28;98483;-68
2021/10/29 01:38:38;;;;;;;;;;;;;;;13.39;57.17;100731.28;4863756;28;98697;-68
2021/10/29 01:41:05;;;;;;;;;;;;;;;13.39;57.20;100731.28;4863352;28;118979;-68
2021/10/29 01:43:32;;;;;;;;;;;;;;;13.38;57.19;100721.56;4864114;28;97996;-61
2021/10/29 01:45:57;;;;;;;;;;;;;;;13.39;56.97;100719.66;4846741;28;99037;-61
2021/10/29 01:48:24;;;;;;;;;;;;;;;13.38;57.06;100707.22;4864422;28;98741;-60
2021/10/29 01:50:50;;;;;;;;;;;;;;;13.38;56.65;100710.72;4864263;28;97987;-68
2021/10/29 01:53:16;;;;;;;;;;;;;;;13.37;57.16;100714.53;4863937;28;98201;-61
2021/10/29 01:55:42;;;;;;;;;;;;;;;13.38;57.15;100709.94;4863730;28;127211;-61
2021/10/29 01:58:08;;;;;;;;;;;;;;;13.36;57.16;100703.97;4863048;28;128369;-61
2021/10/29 02:00:34;;;;;;;;;;;;;;;13.37;57.28;100708.31;4864295;28;98766;-62
2021/10/29 02:03:00;;;;;;;;;;;;;;;13.36;57.01;100704.81;4863722;28;97965;-68
2021/10/29 02:05:26;;;;;;;;;;;;;;;13.36;57.12;100709.38;4863042;28;127992;-68
2021/10/29 02:07:52;;;;;;;;;;;;;;;13.34;57.10;100706.97;4863198;28;127130;-61
2021/10/29 02:10:18;;;;;;;;;;;;;;;13.34;57.02;100704.25;4864007;28;98068;-68
2021/10/29 02:12:44;;;;;;;;;;;;;;;13.33;57.16;100699.13;4862827;28;116943;-69
2021/10/29 02:15:10;;;;;;;;;;;;;;;13.33;57.38;100699.13;4863614;28;98439;-61
2021/10/29 02:17:36;;;;;;;;;;;;;;;13.31;57.10;100696.69;4863164;28;102554;-68
2021/10/29 02:20:02;;;;;;;;;;;;;;;13.29;57.37;100696.19;4844184;28;125653;-61
2021/10/29 02:22:28;;;;;;;;;;;;;;;13.26;57.13;100692.13;4845723;28;110201;-62
2021/10/29 02:24:54;;;;;;;;;;;;;;;13.26;57.25;100697.53;4862703;28;128918;-68
2021/10/29 02:27:20;;;;;;;;;;;;;;;13.26;57.31;100696.72;4862035;28;128215;-61
2021/10/29 02:29:46;;;;;;;;;;;;;;;13.24;57.20;100701.59;4862464;28;127345;-61
2021/10/29 02:32:12;;;;;;;;;;;;;;;13.24;57.38;100698.91;4845764;28;119028;-61
2021/10/29 02:34:37;;;;;;;;;;;;;;;13.23;57.48;100689.97;4829002;28;127554;-61
2021/10/29 02:37:03;;;;;;;;;;;;;;;13.22;57.50;100690.22;4844426;28;128294;-68
2021/10/29 02:39:30;;;;;;;;;;;;;;;13.20;57.51;100695.09;4861667;28;126534;-61
2021/10/29 02:41:56;;;;;;;;;;;;;;;13.20;57.36;100692.38;4864201;28;98359;-61
2021/10/29 02:44:22;;;;;;;;;;;;;;;13.19;57.28;100699.72;4862571;28;98399;-61
2021/10/29 02:46:48;;;;;;;;;;;;;;;13.18;57.40;100694.59;4844953;28;127767;-69
2021/10/29 02:49:14;;;;;;;;;;;;;;;13.17;57.32;100693.78;4862103;28;127610;-61
2021/10/29 02:51:40;;;;;;;;;;;;;;;13.15;57.48;100687.81;4862827;28;117666;-61
2021/10/29 02:54:06;;;;;;;;;;;;;;;13.17;57.62;100695.69;4862358;28;98892;-62
2021/10/29 02:56:32;;;;;;;;;;;;;;;13.16;57.48;100696.75;4862905;28;98515;-61
2021/10/29 02:58:58;;;;;;;;;;;;;;;13.15;57.28;100695.13;4862559;28;97886;-68
2021/10/29 03:01:24;;;;;;;;;;;;;;;13.14;57.58;100705.16;4864090;28;97933;-61
2021/10/29 03:03:50;;;;;;;;;;;;;;;13.12;57.29;100704.59;4862419;28;98844;-62
2021/10/29 03:06:16;;;;;;;;;;;;;;;13.12;57.49;100704.59;4862767;28;128319;-69
2021/10/29 03:08:41;;;;;;;;;;;;;;;13.12;57.52;100701.09;4861812;28;127808;-61
2021/10/29 03:11:07;;;;;;;;;;;;;;;13.11;57.40;100699.47;4862910;28;116949;-61
2021/10/29 03:13:33;;;;;;;;;;;;;;;13.09;57.30;100696.25;4861713;28;128421;-69
2021/10/29 03:15:59;;;;;;;;;;;;;;;13.07;57.46;100693.81;4863184;28;103859;-68
2021/10/29 03:18:25;;;;;;;;;;;;;;;13.07;57.39;100699.22;4861578;28;127658;-62
2021/10/29 03:20:51;;;;;;;;;;;;;;;13.06;57.57;100700.31;4862901;28;118481;-62
2021/10/29 03:23:18;;;;;;;;;;;;;;;13.05;57.48;100697.88;4861773;28;126875;-69
2021/10/29 03:25:45;;;;;;;;;;;;;;;13.03;57.53;100707.09;4846209;28;98156;-68
2021/10/29 03:28:11;;;;;;;;;;;;;;;13.02;57.61;100702.78;4865183;28;98760;-61
2021/10/29 03:30:37;;;;;;;;;;;;;;;13.01;57.66;100701.16;4866943;28;98267;-61
2021/10/29 03:33:03;;;;;;;;;;;;;;;13.00;57.46;100704.94;4865376;28;99154;-69
2021/10/29 03:35:28;;;;;;;;;;;;;;;12.98;57.53;100698.19;4866368;28;98269;-61
2021/10/29 03:38:09;;;;;;;;;;;;;;;12.97;57.54;100696.59;4864816;28;127504;-62
2021/10/29 03:43:15;;;;;;;;;;;;;;;12.94;57.47;100694.44;4864958;28;98296;-61
2021/10/29 03:45:48;;;;;;;;;;;;;;;12.92;57.32;100694.69;4865939;28;98381;-61
2021/10/29 03:48:17;;;;;;;;;;;;;;;12.90;57.55;100696.88;4866244;28;97960;-61
2021/10/29 03:50:49;;;;;;;;;;;;;;;12.90;57.54;100698.78;4866039;28;97943;-63
2021/10/29 03:53:34;;;;;;;;;;;;;;;12.87;57.50;100694.72;4865815;28;98559;-61
2021/10/29 03:56:00;;;;;;;;;;;;;;;12.87;57.53;100696.63;4866187;28;98551;-68
2021/10/29 03:58:26;;;;;;;;;;;;;;;12.84;57.58;100697.97;4864488;28;98331;-61
2021/10/29 04:00:52;;;;;;;;;;;;;;;12.85;57.67;100699.63;4865744;28;117420;-61
2021/10/29 04:03:18;;;;;;;;;;;;;;;12.84;57.71;100697.16;4865635;28;119548;-61
2021/10/29 04:05:44;;;;;;;;;;;;;;;12.82;57.61;100694.75;4865763;28;99193;-69
2021/10/29 04:08:10;;;;;;;;;;;;;;;12.82;57.57;100694.75;4865632;28;98362;-68
2021/10/29 04:10:41;;;;;;;;;;;;;;;12.82;57.41;100696.66;4865639;28;97920;-61
2021/10/29 04:13:10;;;;;;;;;;;;;;;12.80;57.62;100696.91;4865127;28;98613;-68
2021/10/29 04:15:37;;;;;;;;;;;;;;;12.78;57.52;100693.69;4866118;28;98013;-69
2021/10/29 04:18:03;;;;;;;;;;;;;;;12.77;57.56;100692.88;4847137;28;98475;-69
2021/10/29 04:20:29;;;;;;;;;;;;;;;12.76;57.71;100693.94;4864940;28;117612;-69
2021/10/29 04:22:55;;;;;;;;;;;;;;;12.75;57.61;100686.13;4865081;28;115611;-61
2021/10/29 04:25:21;;;;;;;;;;;;;;;12.76;57.58;100690.44;4864224;28;128618;-61
2021/10/29 04:27:58;;;;;;;;;;;;;;;12.73;57.66;100693.69;4874632;28;127542;-61
2021/10/29 04:30:25;;;;;;;;;;;;;;;12.73;57.57;100685.56;4884462;28;98002;-61
2021/10/29 04:32:51;;;;;;;;;;;;;;;12.74;57.66;100685.31;4876674;28;98318;-68
2021/10/29 04:35:17;;;;;;;;;;;;;;;12.73;57.57;100691.81;4864102;28;117938;-61
2021/10/29 04:37:43;;;;;;;;;;;;;;;12.72;57.61;100692.88;4865717;28;98005;-62
2021/10/29 04:40:09;;;;;;;;;;;;;;;12.71;57.62;100685.03;4846785;28;116846;-69
2021/10/29 04:42:36;;;;;;;;;;;;;;;12.71;57.53;100685.84;4881108;28;117156;-69
2021/10/29 04:45:05;;;;;;;;;;;;;;;12.70;57.46;100683.44;4865942;28;98662;-68
2021/10/29 04:47:31;;;;;;;;;;;;;;;12.69;57.69;100685.34;4866990;28;98343;-68
2021/10/29 04:49:57;;;;;;;;;;;;;;;12.69;57.58;100687.19;4865768;28;110738;-68
2021/10/29 04:52:23;;;;;;;;;;;;;;;12.68;57.77;100681.00;4864288;28;100477;-69
2021/10/29 04:54:49;;;;;;;;;;;;;;;12.67;57.65;100683.97;4871917;28;117667;-69
2021/10/29 04:57:15;;;;;;;;;;;;;;;12.67;57.57;100678.56;4883077;28;97954;-69
2021/10/29 04:59:41;;;;;;;;;;;;;;;12.66;57.54;100675.06;4883671;28;97808;-69
2021/10/29 05:02:07;;;;;;;;;;;;;;;12.65;57.85;100676.13;4883145;28;117017;-68
2021/10/29 05:04:33;;;;;;;;;;;;;;;12.64;57.64;100676.41;4875021;28;109244;-69
2021/10/29 05:06:59;;;;;;;;;;;;;;;12.64;57.64;100681.81;4863378;28;127912;-69
2021/10/29 05:09:25;;;;;;;;;;;;;;;12.63;57.70;100675.59;4850425;28;100842;-69
2021/10/29 05:11:51;;;;;;;;;;;;;;;12.62;57.63;100675.91;4881697;28;98365;-69
2021/10/29 05:14:17;;;;;;;;;;;;;;;12.61;57.68;100671.56;4882191;28;129080;-69
2021/10/29 05:16:43;;;;;;;;;;;;;;;12.61;57.67;100674.25;4877562;28;104867;-69
2021/10/29 05:19:09;;;;;;;;;;;;;;;12.62;57.47;100678.59;4871641;28;98358;-69
2021/10/29 05:21:35;;;;;;;;;;;;;;;12.59;57.81;100682.66;4882554;28;129054;-69
2021/10/29 05:24:00;;;;;;;;;;;;;;;12.60;57.97;100686.16;4880562;28;127772;-69
2021/10/29 05:26:26;;;;;;;;;;;;;;;12.59;57.72;100685.34;4883403;28;114387;-69
2021/10/29 05:28:52;;;;;;;;;;;;;;;12.58;57.74;100681.03;4882313;28;114488;-70
2021/10/29 05:31:18;;;;;;;;;;;;;;;12.59;57.77;100681.84;4884392;28;98076;-69
2021/10/29 05:33:44;;;;;;;;;;;;;;;12.58;57.76;100681.03;4880270;28;126883;-69
2021/10/29 05:36:10;;;;;;;;;;;;;;;12.59;57.90;100676.44;4882285;28;98192;-69
2021/10/29 05:38:36;;;;;;;;;;;;;;;12.58;57.69;100677.53;4882235;28;115886;-69
2021/10/29 05:41:02;;;;;;;;;;;;;;;12.58;57.82;100678.34;4882365;28;98493;-69
2021/10/29 05:43:28;;;;;;;;;;;;;;;12.58;57.75;100670.22;4881308;28;98731;-70
2021/10/29 05:45:54;;;;;;;;;;;;;;;12.59;57.65;100674.53;4867954;28;120093;-70
2021/10/29 05:48:20;;;;;;;;;;;;;;;12.59;57.81;100673.72;4861536;28;116912;-69
2021/10/29 05:50:51;;;;;;;;;;;;;;;12.60;57.80;100678.06;4864331;28;98746;-69
2021/10/29 05:53:36;;;;;;;;;;;;;;;12.60;57.77;100664.53;4862828;28;98552;-69
2021/10/29 05:56:03;;;;;;;;;;;;;;;12.60;57.81;100676.16;4863288;28;97899;-69
2021/10/29 05:58:29;;;;;;;;;;;;;;;12.62;57.65;100681.31;4863672;28;98288;-69
2021/10/29 06:00:55;;;;;;;;;;;;;;;12.62;57.67;100678.59;4864207;28;127259;-69
2021/10/29 06:03:21;;;;;;;;;;;;;;;12.63;57.62;100685.63;4845640;28;98197;-69
2021/10/29 06:05:47;;;;;;;;;;;;;;;12.63;57.79;100689.13;4862831;28;128125;-69
2021/10/29 06:08:13;;;;;;;;;;;;;;;12.65;57.70;100689.66;4862407;28;116836;-69
2021/10/29 06:10:39;;;;;;;;;;;;;;;12.66;57.66;100688.59;4864538;28;98516;-69
2021/10/29 06:13:05;;;;;;;;;;;;;;;12.68;57.69;100689.09;4846921;28;127408;-69
2021/10/29 06:15:32;;;;;;;;;;;;;;;12.69;57.81;100690.75;4829369;28;128034;-69
2021/10/29 06:17:58;;;;;;;;;;;;;;;12.70;57.52;100686.94;4864065;28;98122;-69
2021/10/29 06:20:25;;;;;;;;;;;;;;;12.71;57.56;100693.97;4846726;28;98895;-70
2021/10/29 06:22:53;;;;;;;;;;;;;;;12.73;57.33;100690.97;4862828;28;98506;-69
2021/10/29 06:25:21;;;;;;;;;;;;;;;12.74;57.52;100689.91;4863145;28;97952;-69
2021/10/29 06:30:42;;;;;;;;;;;;;;;12.78;57.64;100693.69;4859236;28;98138;-69
2021/10/29 06:33:10;;;;;;;;;;;;;;;12.81;57.45;100695.00;4862567;28;98107;-69
2021/10/29 06:35:36;;;;;;;;;;;;;;;12.82;57.44;100697.44;4862510;28;99106;-69
2021/10/29 06:38:02;;;;;;;;;;;;;;;12.85;57.57;100702.31;4844396;28;112170;-71
2021/10/29 06:40:29;;;;;;;;;;;;;;;12.86;57.48;100698.53;4861388;28;127313;-69
2021/10/29 06:42:59;;;;;;;;;;;;;;;12.89;57.67;100695.25;4862669;28;98071;-69
2021/10/29 07:13:47;;;;;;;;;;;;;;;13.41;57.05;100704.75;4848456;28;99106;-70
2021/10/29 07:40:04;;;;;;;;;;;;;;;14.57;55.43;100693.22;4847453;28;98319;-63
2021/10/29 07:42:38;;;;;;;;;;;;;;;14.72;55.44;100695.75;4866020;28;98027;-69
2021/10/29 07:45:05;;;;;;;;;;;;;;;15.01;55.15;100699.47;4849673;28;99081;-69
2021/10/29 07:47:31;;;;;;;;;;;;;;;15.21;54.62;100696.53;4866278;28;103983;-70
2021/10/29 07:49:56;;;;;;;;;;;;;;;15.60;54.24;100689.97;4864355;28;127984;-62
2021/10/29 07:52:22;;;;;;;;;;;;;;;16.10;53.14;100693.00;4865470;28;98039;-70
2021/10/29 07:54:48;;;;;;;;;;;;;;;16.68;52.56;100695.97;4866477;28;98263;-70
2021/10/29 07:57:18;;;;;;;;;;;;;;;17.53;51.16;100703.75;4864363;28;128587;-62
2021/10/29 07:59:46;;;;;;;;;;;;;;;18.26;50.01;100690.78;4865272;28;97933;-62
2021/10/29 08:02:12;;;;;;;;;;;;;;;19.15;48.96;100697.88;4848104;28;98096;-62
2021/10/29 08:04:38;;;;;;;;;;;;;;;20.61;46.73;100700.78;4865071;28;104809;-62
2021/10/29 08:07:04;;;;;;;;;;;;;;;21.62;45.52;100703.53;4864418;28;128641;-70
2021/10/29 08:09:30;;;;;;;;;;;;;;;22.19;44.95;100715.75;4863818;28;127614;-63
2021/10/29 08:11:56;;;;;;;;;;;;;;;22.49;45.28;100714.44;4845842;28;116396;-63
2021/10/29 08:14:23;;;;;;;;;;;;;;;23.02;45.18;100711.81;4866030;28;99167;-63
2021/10/29 08:16:49;;;;;;;;;;;;;;;23.92;44.67;100707.81;4865570;28;99343;-70
2021/10/29 08:19:20;;;;;;;;;;;;;;;25.07;43.37;100707.91;4865178;28;98230;-64
2021/10/29 08:21:46;;;;;;;;;;;;;;;26.22;42.15;100706.38;4848151;28;97952;-63
2021/10/29 08:24:13;;;;;;;;;;;;;;;27.55;40.68;100715.53;4847016;28;99011;-63
2021/10/29 08:26:39;;;;;;;;;;;;;;;29.22;38.63;100709.94;4848359;28;98260;-64
2021/10/29 08:29:05;;;;;;;;;;;;;;;30.68;37.03;100717.84;4864171;28;97773;-71
2021/10/29 08:31:31;;;;;;;;;;;;;;;31.78;35.82;100714.00;4864191;28;117439;-71
2021/10/29 08:34:00;;;;;;;;;;;;;;;32.84;34.93;100722.00;4865113;28;97757;-71
2021/10/29 08:36:28;;;;;;;;;;;;;;;33.69;34.24;100708.31;4864723;28;99019;-71
2021/10/29 08:38:54;;;;;;;;;;;;;;;34.41;33.69;100694.84;4847518;28;97973;-62
2021/10/29 08:41:20;;;;;;;;;;;;;;;34.63;33.55;100700.91;4847077;28;98865;-62
2021/10/29 08:43:47;;;;;;;;;;;;;;;34.23;34.74;100690.78;4847744;28;98506;-62
2021/10/29 08:46:13;;;;;;;;;;;;;;;33.71;35.67;100683.53;4847394;28;98014;-69
2021/10/29 08:48:40;;;;;;;;;;;;;;;33.49;36.44;100679.47;4847435;28;99452;-69
2021/10/29 08:51:06;;;;;;;;;;;;;;;33.39;36.41;100679.13;4847524;28;97986;-69
2021/10/29 08:53:32;;;;;;;;;;;;;;;33.21;36.42;100673.00;4865089;28;98418;-62
2021/10/29 08:56:02;;;;;;;;;;;;;;;33.07;37.26;100667.59;4864976;28;98691;-70
2021/10/29 08:58:30;;;;;;;;;;;;;;;33.02;37.34;100656.88;4846948;28;98504;-69
2021/10/29 09:01:09;;;;;;;;;;;;;;;33.06;37.21;100654.84;4865274;28;97837;-70
2021/10/29 09:03:46;;;;;;;;;;;;;;;33.08;36.00;100658.78;4849169;28;98009;-62
2021/10/29 09:12:03;;;;;;;;;;;;;;;33.06;34.96;100652.84;4863515;28;97810;-61
2021/10/29 09:31:31;;;;;;;;;;;;;;;29.95;38.03;100623.72;4883653;28;98022;-70
2021/10/29 09:34:04;;;;;;;;;;;;;;;29.90;38.30;100624.09;4867296;28;99327;-71
2021/10/29 09:36:35;;;;;;;;;;;;;;;30.06;37.92;100615.38;4883234;28;98013;-72
2021/10/29 09:39:08;;;;;;;;;;;;;;;30.17;38.02;100613.44;4864033;28;99054;-71
2021/10/29 09:41:35;;;;;;;;;;;;;;;30.29;38.09;100615.03;4883536;28;97902;-71
2021/10/29 09:44:06;;;;;;;;;;;;;;;30.35;38.21;100613.44;4883454;28;97766;-71
2021/10/29 09:46:53;;;;;;;;;;;;;;;30.25;38.44;100609.47;4883355;28;98981;-70
2021/10/29 09:57:19;;;;;;;;;;;;;;;28.99;40.08;100606.78;4882484;28;97839;-70
2021/10/29 09:59:45;;;;;;;;;;;;;;;28.68;40.04;100595.09;4875922;28;98216;-71
2021/10/29 10:02:21;;;;;;;;;;;;;;;28.41;40.38;100593.72;4860378;28;121908;-70
2021/10/29 10:04:49;;;;;;;;;;;;;;;28.17;40.58;100589.56;4865805;28;98028;-70
2021/10/29 10:07:19;;;;;;;;;;;;;;;28.02;40.43;100589.47;4850021;28;98060;-70
2021/10/29 10:09:45;;;;;;;;;;;;;;;27.96;40.19;100581.88;4865979;28;98770;-70
2021/10/29 10:12:12;;;;;;;;;;;;;;;27.97;39.87;100589.81;4849364;28;98225;-70
2021/10/29 10:14:38;;;;;;;;;;;;;;;28.23;39.81;100591.59;4881675;28;99254;-70
2021/10/29 10:17:04;;;;;;;;;;;;;;;28.90;38.53;100584.13;4865052;28;99363;-69
2021/10/29 10:19:30;;;;;;;;;;;;;;;29.94;37.16;100579.66;4882284;28;98442;-70
2021/10/29 10:21:57;;;;;;;;;;;;;;;31.02;35.77;100586.66;4865122;28;98028;-71
2021/10/29 10:24:31;;;;;;;;;;;;;;;31.96;34.68;100590.53;4882452;28;97832;-70
2021/10/29 10:43:18;;;;;;;;;;;;;;;33.06;34.00;100573.91;4876440;28;98072;-62
2021/10/29 10:45:58;;;;;;;;;;;;;;;32.65;33.87;100566.38;4864683;28;98135;-62
2021/10/29 10:48:27;;;;;;;;;;;;;;;32.14;34.48;100563.28;4863603;28;98685;-62
2021/10/29 10:51:00;;;;;;;;;;;;;;;31.63;35.21;100553.72;4860856;28;98323;-62
2021/10/29 10:53:47;;;;;;;;;;;;;;;31.08;35.78;100557.22;4861696;28;98099;-69
2021/10/29 10:56:35;;;;;;;;;;;;;;;30.25;36.64;100551.09;4863449;28;97979;-62
2021/10/29 10:59:31;;;;;;;;;;;;;;;29.46;37.38;100544.69;4863789;28;98533;-68
2021/10/29 11:11:03;;;;;;;;;;;;;;;27.42;39.42;100532.31;4862562;28;98537;-62
2021/10/29 11:13:48;;;;;;;;;;;;;;;27.10;39.86;100533.91;4882616;28;98638;-71
2021/10/29 11:16:25;;;;;;;;;;;;;;;26.74;40.16;100532.69;4881949;28;97987;-64
2021/10/29 11:19:14;;;;;;;;;;;;;;;26.43;40.41;100532.66;4881045;28;97994;-61
2021/10/29 11:21:54;;;;;;;;;;;;;;;26.13;40.68;100524.34;4881865;28;99303;-61
2021/10/29 11:24:28;;;;;;;;;;;;;;;25.84;41.23;100517.56;4881940;28;99132;-69
2021/10/29 11:27:25;;;;;;;;;;;;;;;25.59;41.59;100517.09;4881373;28;98152;-69
2021/10/29 11:29:52;;;;;;;;;;;;;;;25.31;42.22;100516.56;4858962;28;98317;-69
2021/10/29 11:32:23;;;;;;;;;;;;;;;25.10;42.14;100515.00;4862804;28;99159;-69
2021/10/29 11:34:51;;;;;;;;;;;;;;;24.87;42.80;100509.41;4882128;28;98937;-61
2021/10/29 11:37:18;;;;;;;;;;;;;;;24.67;42.83;100516.06;4863858;28;98641;-69
2021/10/29 11:39:44;;;;;;;;;;;;;;;24.46;43.15;100508.16;4869302;28;98011;-69
2021/10/29 11:42:10;;;;;;;;;;;;;;;24.24;43.52;100506.84;4880882;28;97974;-61
2021/10/29 11:44:38;;;;;;;;;;;;;;;24.03;43.53;100492.59;4881784;28;98966;-69
2021/10/29 11:47:04;;;;;;;;;;;;;;;23.82;43.81;100493.69;4883108;28;110689;-61
2021/10/29 11:49:30;;;;;;;;;;;;;;;23.63;44.21;100493.56;4865526;28;113003;-61
2021/10/29 11:51:58;;;;;;;;;;;;;;;23.44;44.46;100491.50;4884698;28;98396;-69
2021/10/29 11:54:27;;;;;;;;;;;;;;;23.25;45.14;100495.72;4866158;28;98943;-69
2021/10/29 11:59:40;;;;;;;;;;;;;;;22.90;45.18;100490.03;4880688;28;98061;-61
2021/10/29 12:07:35;;;;;;;;;;;;;;;22.35;46.07;100466.06;4865116;28;98261;-69
2021/10/29 12:10:13;;;;;;;;;;;;;;;22.21;46.43;100471.94;4832606;28;97900;-68
2021/10/29 12:12:40;;;;;;;;;;;;;;;22.05;46.68;100469.06;4865847;28;97953;-69
2021/10/29 12:15:10;;;;;;;;;;;;;;;21.92;46.90;100472.94;4865244;28;98407;-69
2021/10/29 12:17:52;;;;;;;;;;;;;;;21.78;46.89;100456.84;4865756;28;98346;-60
2021/10/29 12:20:22;;;;;;;;;;;;;;;21.65;47.26;100460.69;4877817;28;98020;-69
2021/10/29 12:22:53;;;;;;;;;;;;;;;21.51;47.58;100447.31;4884613;28;98803;-69
2021/10/29 12:28:18;;;;;;;;;;;;;;;21.27;47.96;100437.91;4864604;28;97989;-60
2021/10/29 12:33:59;;;;;;;;;;;;;;;21.07;48.45;100444.25;4884219;28;98522;-61
2021/10/29 13:01:56;;;;;;;;;;;;;;;20.43;49.18;100420.78;4865158;28;97948;-69
2021/10/29 13:04:29;;;;;;;;;;;;;;;20.41;49.36;100412.13;4884543;28;98023;-71
2021/10/29 13:06:55;;;;;;;;;;;;;;;20.44;49.24;100411.47;4864557;28;99390;-68
2021/10/29 13:09:23;;;;;;;;;;;;;;;20.50;49.33;100412.06;4861928;28;98803;-69
2021/10/29 13:12:03;;;;;;;;;;;;;;;20.56;49.30;100410.75;4865652;28;97963;-60
2021/10/29 13:14:38;;;;;;;;;;;;;;;20.59;49.20;100402.66;4884339;28;97873;-61
2021/10/29 13:17:07;;;;;;;;;;;;;;;20.63;49.16;100408.25;4882976;28;99280;-60
2021/10/29 13:23:12;;;;;;;;;;;;;;;20.66;49.03;100404.03;4825720;28;97887;-69
2021/10/29 13:57:26;;;;;;;;;;;;;;;20.09;49.83;100378.09;4894602;28;104701;-62
2021/10/29 14:29:59;;;;;;;;;;;;;;;19.22;50.65;100375.81;4873886;28;98029;-60
2021/10/29 14:32:45;;;;;;;;;;;;;;;19.13;50.95;100380.47;4892381;28;98623;-60
2021/10/29 14:35:18;;;;;;;;;;;;;;;19.07;51.00;100382.59;4893335;28;98078;-68
2021/10/29 14:40:23;;;;;;;;;;;;;;;18.94;51.19;100385.50;4876260;28;98103;-68
2021/10/29 14:42:53;;;;;;;;;;;;;;;18.87;51.10;100386.81;4871722;28;98591;-68
2021/10/29 15:04:49;;;;;;;;;;;;;;;18.32;52.29;100371.13;4889567;28;98145;-62
2021/10/29 15:07:31;;;;;;;;;;;;;;;18.26;52.63;100380.59;4887030;28;98853;-68
2021/10/29 15:18:06;;;;;;;;;;;;;;;17.97;53.29;100383.13;4894722;28;123522;-60
2021/10/29 15:26:20;;;;;;;;;;;;;;;17.74;53.73;100377.75;4898618;28;98676;-60
2021/10/29 15:31:35;;;;;;;;;;;;;;;17.61;54.11;100368.59;4899236;28;113775;-60
2021/10/29 15:42:32;;;;;;;;;;;;;;;17.34;54.79;100371.56;4898038;28;98018;-67
2021/10/29 15:45:07;;;;;;;;;;;;;;;17.27;54.94;100371.19;4901522;28;98145;-60
2021/10/29 15:50:18;;;;;;;;;;;;;;;17.14;55.25;100373.72;4891899;28;98247;-68
2021/10/29 15:52:51;;;;;;;;;;;;;;;17.08;55.28;100380.41;4897730;28;98509;-60
2021/10/29 15:55:24;;;;;;;;;;;;;;;17.03;55.58;100377.81;4899705;28;97796;-60
2021/10/29 15:58:09;;;;;;;;;;;;;;;16.98;55.49;100377.97;4877246;28;98402;-68
2021/10/29 16:01:00;;;;;;;;;;;;;;;16.90;55.71;100373.28;4884867;28;98575;-67
2021/10/29 16:17:22;;;;;;;;;;;;;;;16.51;56.43;100363.06;4897900;28;98282;-68
2021/10/29 16:19:48;;;;;;;;;;;;;;;16.46;56.69;100361.25;4863905;28;98182;-68
2021/10/29 16:22:21;;;;;;;;;;;;;;;16.40;56.66;100363.28;4878282;28;120523;-68
2021/10/29 16:25:01;;;;;;;;;;;;;;;16.34;56.60;100364.50;4875410;28;98041;-59
2021/10/29 16:27:37;;;;;;;;;;;;;;;16.31;56.88;100369.75;4898543;28;97969;-60
2021/10/29 16:30:03;;;;;;;;;;;;;;;16.25;56.74;100368.28;4888927;28;98690;-68
2021/10/29 16:32:51;;;;;;;;;;;;;;;16.21;56.85;100365.38;4895506;28;98743;-60
2021/10/29 16:35:16;;;;;;;;;;;;;;;16.13;57.05;100358.75;4899889;28;98949;-60
2021/10/29 16:37:42;;;;;;;;;;;;;;;16.10;56.95;100367.53;4891269;28;99044;-60
2021/10/29 16:40:09;;;;;;;;;;;;;;;16.05;56.99;100361.41;4895509;28;98669;-59
2021/10/29 16:42:35;;;;;;;;;;;;;;;16.01;57.25;100363.94;4894370;28;98456;-59
2021/10/29 16:45:01;;;;;;;;;;;;;;;15.96;57.21;100364.03;4896719;28;98189;-59
2021/10/29 16:47:28;;;;;;;;;;;;;;;15.91;57.03;100364.13;4892275;28;117666;-68
2021/10/29 16:49:54;;;;;;;;;;;;;;;15.88;57.51;100367.50;4898129;28;98193;-60
2021/10/29 16:52:20;;;;;;;;;;;;;;;15.84;57.36;100361.84;4898263;28;127883;-68
2021/10/29 16:54:45;;;;;;;;;;;;;;;15.80;57.53;100369.00;4881529;28;125101;-60
2021/10/29 16:57:12;;;;;;;;;;;;;;;15.77;57.49;100377.75;4896680;28;118429;-68
2021/10/29 16:59:38;;;;;;;;;;;;;;;15.74;57.51;100383.00;4890109;28;98245;-68
2021/10/29 17:02:04;;;;;;;;;;;;;;;15.70;57.37;100374.66;4890015;28;107983;-68
2021/10/29 17:04:31;;;;;;;;;;;;;;;15.65;57.68;100372.84;4893251;28;97951;-68
2021/10/29 17:06:56;;;;;;;;;;;;;;;15.63;57.46;100383.16;4899953;28;98095;-60
2021/10/29 17:09:23;;;;;;;;;;;;;;;15.59;57.52;100378.66;4886257;28;127063;-67
2021/10/29 17:11:49;;;;;;;;;;;;;;;15.54;57.67;100382.28;4899410;28;98112;-60
2021/10/29 17:14:15;;;;;;;;;;;;;;;15.51;57.60;100371.19;4894705;28;127988;-68
2021/10/29 17:16:41;;;;;;;;;;;;;;;15.47;57.97;100373.72;4898322;28;117666;-68
2021/10/29 17:19:07;;;;;;;;;;;;;;;15.44;58.08;100377.88;4899168;28;99166;-68
2021/10/29 17:21:33;;;;;;;;;;;;;;;15.40;57.92;100376.81;4897755;28;127757;-60